Time;durP1;ratioP1;P1;durP2;ratioP2;P2;SDS_P1;SDS_P2;PMS_P1;PMS_P2;Temp;Humidity;BMP_temperature;BMP_pressure;BME280_temperature;BME280_humidity;BME280_pressure;Samples;Min_cycle;Max_cycle;Signal;HPM_P1;HPM_P2
2022/09/06 00:01:22;;;;;;;53.17;23.38;;;;;;;5.31;92.37;100192.97;1710819;83;21048;-76
2022/09/06 00:03:50;;;;;;;52.62;22.98;;;;;;;5.24;92.14;100196.47;1713213;82;21464;-76
2022/09/06 00:06:20;;;;;;;54.38;23.73;;;;;;;5.18;93.02;100198.10;1713473;83;21008;-76
2022/09/06 00:08:47;;;;;;;53.83;24.27;;;;;;;5.13;93.60;100198.08;1713147;82;21417;-78
2022/09/06 00:11:16;;;;;;;46.28;21.80;;;;;;;5.09;93.72;100195.60;1686512;84;21150;-79
2022/09/06 00:13:44;;;;;;;41.02;19.85;;;;;;;5.05;93.24;100196.67;1676027;85;21078;-79
2022/09/06 00:16:22;;;;;;;52.43;22.77;;;;;;;4.98;93.01;100193.36;1685303;83;21077;-79
2022/09/06 00:18:54;;;;;;;47.40;21.68;;;;;;;4.94;93.50;100199.05;1685580;84;20957;-79
2022/09/06 00:21:31;;;;;;;47.73;21.17;;;;;;;4.90;94.20;100199.30;1681852;84;20935;-79
2022/09/06 00:23:59;;;;;;;49.13;22.27;;;;;;;4.89;94.52;100194.94;1685356;83;21162;-79
2022/09/06 00:26:32;;;;;;;49.60;22.40;;;;;;;4.89;95.34;100198.48;1654389;85;21473;-79
2022/09/06 00:29:01;;;;;;;50.03;22.15;;;;;;;4.88;95.53;100198.73;1685197;83;21062;-79
2022/09/06 00:31:34;;;;;;;45.52;21.27;;;;;;;4.82;94.98;100198.42;1686535;84;21426;-80
2022/09/06 00:34:02;;;;;;;48.20;21.35;;;;;;;4.73;94.56;100202.17;1675113;85;21156;-80
2022/09/06 00:36:29;;;;;;;49.20;20.97;;;;;;;4.70;94.45;100211.39;1717414;82;21568;-80
2022/09/06 00:38:57;;;;;;;46.15;21.45;;;;;;;4.64;94.21;100203.73;1684084;83;21467;-79
2022/09/06 00:41:23;;;;;;;46.25;21.37;;;;;;;4.58;94.21;100208.34;1685991;84;21064;-83
2022/09/06 00:43:56;;;;;;;50.88;22.75;;;;;;;4.55;94.07;100215.66;1711026;82;20978;-81
2022/09/06 00:46:28;;;;;;;48.50;22.32;;;;;;;4.51;93.94;100217.80;1684076;84;21056;-79
2022/09/06 00:49:08;;;;;;;52.17;21.85;;;;;;;4.46;94.19;100219.94;1656813;85;21470;-78
2022/09/06 00:51:37;;;;;;;49.98;22.07;;;;;;;4.43;94.89;100225.07;1675313;84;20913;-78
2022/09/06 00:54:07;;;;;;;49.90;22.95;;;;;;;4.43;94.89;100225.07;1684021;84;21135;-77
2022/09/06 00:56:42;;;;;;;51.83;21.95;;;;;;;4.40;95.12;100226.41;1675061;84;20966;-78
2022/09/06 00:59:13;;;;;;;46.18;20.97;;;;;;;4.38;95.00;100224.48;1646907;84;21100;-78
2022/09/06 01:01:42;;;;;;;46.77;21.45;;;;;;;4.34;94.95;100222.00;1670767;84;20925;-77
2022/09/06 01:04:16;;;;;;;48.95;22.17;;;;;;;4.31;95.35;100219.26;1637626;86;21108;-79
2022/09/06 01:06:53;;;;;;;44.25;21.95;;;;;;;4.27;95.73;100222.75;1691021;83;21146;-78
2022/09/06 01:09:41;;;;;;;58.08;23.73;;;;;;;4.24;95.94;100219.19;1690521;83;21013;-81
2022/09/06 01:12:39;;;;;;;52.30;23.25;;;;;;;4.22;96.32;100228.14;1691779;83;21079;-82
2022/09/06 01:15:16;;;;;;;49.60;21.93;;;;;;;4.15;96.29;100226.16;1690304;83;22103;-82
2022/09/06 01:17:54;;;;;;;49.53;22.45;;;;;;;4.08;96.11;100222.29;1687939;84;21554;-77
2022/09/06 01:21:03;;;;;;;45.95;23.67;;;;;;;4.02;96.04;100221.98;1689547;83;20980;-77
2022/09/06 01:23:55;;;;;;;45.43;21.87;;;;;;;3.96;96.21;100223.83;1691005;83;21166;-79
2022/09/06 01:27:09;;;;;;;44.60;20.45;;;;;;;3.94;96.12;100229.23;1709266;83;20924;-79
2022/09/06 01:29:52;;;;;;;49.40;20.92;;;;;;;3.91;95.98;100227.03;1655987;84;21695;-79
2022/09/06 01:33:02;;;;;;;44.70;20.23;;;;;;;3.86;95.98;100222.36;1672123;85;20867;-79
2022/09/06 01:35:36;;;;;;;46.20;20.92;;;;;;;3.82;95.86;100225.30;1650415;87;20947;-80
2022/09/06 01:38:07;;;;;;;42.60;19.87;;;;;;;3.74;95.98;100224.39;1628116;86;20954;-80
2022/09/06 01:40:39;;;;;;;45.60;20.90;;;;;;;3.71;95.82;100222.19;1651545;87;21010;-82
2022/09/06 01:43:30;;;;;;;44.27;20.00;;;;;;;3.64;96.14;100229.17;1629422;86;21414;-84
2022/09/06 01:46:14;;;;;;;52.65;22.10;;;;;;;3.61;96.45;100227.50;1616410;86;20912;-79
2022/09/06 01:49:25;;;;;;;49.83;21.12;;;;;;;3.65;98.56;100236.24;1641598;86;20997;-80
2022/09/06 01:52:11;;;;;;;44.33;19.00;;;;;;;3.65;98.56;100236.24;1660681;85;21531;-79
2022/09/06 01:54:59;;;;;;;46.28;21.45;;;;;;;3.64;98.34;100244.11;1649581;86;20907;-80
2022/09/06 01:57:49;;;;;;;46.60;19.57;;;;;;;3.60;98.01;100245.69;1656151;86;21801;-82
2022/09/06 02:00:24;;;;;;;41.63;20.02;;;;;;;3.57;99.03;100242.65;1630367;86;21073;-81
2022/09/06 02:03:15;;;;;;;43.45;18.80;;;;;;;3.57;99.03;100242.65;1606686;86;21073;-84
2022/09/06 02:05:56;;;;;;;45.15;19.35;;;;;;;3.52;98.87;100242.05;1666495;85;21044;-86
2022/09/06 02:08:42;;;;;;;37.33;18.95;;;;;;;3.50;98.58;100241.48;1683901;84;21085;-82
2022/09/06 02:11:08;;;;;;;59.40;18.95;;;;;;;3.48;98.47;100244.98;1660727;85;21169;-81
2022/09/06 02:13:45;;;;;;;42.65;18.25;;;;;;;3.46;98.64;100243.63;1685917;83;20998;-81
2022/09/06 02:16:18;;;;;;;38.35;17.82;;;;;;;3.47;98.74;100246.06;1706417;82;20890;-76
2022/09/06 02:18:51;;;;;;;41.15;18.25;;;;;;;3.49;98.85;100244.45;1718754;82;21183;-79
2022/09/06 02:21:23;;;;;;;40.05;19.02;;;;;;;3.50;99.15;100242.02;1720851;82;20972;-79
2022/09/06 02:23:56;;;;;;;41.40;18.42;;;;;;;3.54;99.86;100248.05;1665808;85;21454;-80
2022/09/06 02:26:29;;;;;;;46.48;18.85;;;;;;;3.65;100.00;100248.46;1676639;85;21022;-79
2022/09/06 02:28:59;;;;;;;40.20;18.27;;;;;;;3.78;100.00;100243.72;1711776;83;21048;-79
2022/09/06 02:31:43;;;;;;;41.37;18.50;;;;;;;3.92;100.00;100244.44;1716323;82;21079;-80
2022/09/06 02:34:16;;;;;;;39.80;17.80;;;;;;;4.08;100.00;100248.11;1715932;81;21022;-80
2022/09/06 02:36:45;;;;;;;39.30;18.85;;;;;;;4.23;100.00;100243.36;1684737;83;21094;-81
2022/09/06 02:39:18;;;;;;;41.92;18.48;;;;;;;4.54;100.00;100244.47;1715086;82;21060;-79
2022/09/06 02:41:48;;;;;;;38.38;17.65;;;;;;;4.54;100.00;100244.47;1719093;82;20938;-81
2022/09/06 02:44:23;;;;;;;32.23;16.15;;;;;;;4.65;100.00;100245.62;1718977;82;21130;-77
2022/09/06 02:47:02;;;;;;;37.00;16.50;;;;;;;4.80;100.00;100245.47;1728477;82;20850;-77
2022/09/06 02:49:33;;;;;;;34.08;16.12;;;;;;;4.91;100.00;100244.47;1701121;83;20939;-78
2022/09/06 02:52:10;;;;;;;35.38;15.55;;;;;;;4.98;100.00;100247.78;1685266;83;21085;-80
2022/09/06 02:54:44;;;;;;;34.90;15.70;;;;;;;5.16;100.00;100234.30;1713933;81;21515;-82
2022/09/06 02:57:12;;;;;;;30.65;15.23;;;;;;;5.23;100.00;100238.93;1698458;82;20961;-73
2022/09/06 02:59:44;;;;;;;32.93;15.78;;;;;;;5.23;100.00;100238.93;1701887;82;21012;-78
2022/09/06 03:02:11;;;;;;;36.17;14.10;;;;;;;5.36;100.00;100241.72;1685113;84;21896;-73
2022/09/06 03:04:42;;;;;;;32.88;15.88;;;;;;;5.36;100.00;100241.72;1685728;83;21029;-75
2022/09/06 03:07:12;;;;;;;39.27;15.35;;;;;;;5.42;100.00;100248.84;1675001;85;20971;-75
2022/09/06 03:09:42;;;;;;;31.87;14.60;;;;;;;5.40;100.00;100233.30;1711241;83;20948;-75
2022/09/06 03:12:16;;;;;;;37.08;16.02;;;;;;;5.37;100.00;100237.92;1685686;83;20997;-74
2022/09/06 03:14:48;;;;;;;30.00;13.75;;;;;;;5.35;100.00;100241.45;1714930;82;21325;-74
2022/09/06 03:17:20;;;;;;;30.70;12.75;;;;;;;5.37;100.00;100240.09;1682737;83;21505;-75
2022/09/06 03:19:51;;;;;;;37.70;15.10;;;;;;;5.40;100.00;100244.20;1702892;83;20937;-75
2022/09/06 03:22:25;;;;;;;40.50;15.43;;;;;;;5.39;99.67;100240.66;1684127;84;20974;-77
2022/09/06 03:24:52;;;;;;;39.85;16.57;;;;;;;5.40;99.35;100241.47;1687216;84;21008;-76
2022/09/06 03:27:19;;;;;;;35.28;15.93;;;;;;;5.37;99.11;100245.55;1685994;83;21640;-76
2022/09/06 03:29:53;;;;;;;32.30;14.63;;;;;;;5.31;98.66;100256.95;1685913;83;21109;-77
2022/09/06 03:32:27;;;;;;;37.63;15.23;;;;;;;5.25;98.99;100255.28;1664330;85;21132;-77
2022/09/06 03:35:00;;;;;;;38.08;14.68;;;;;;;5.20;98.83;100256.61;1712281;83;21028;-77
2022/09/06 03:37:30;;;;;;;32.35;14.50;;;;;;;5.12;98.24;100257.13;1687799;84;21056;-73
2022/09/06 03:40:02;;;;;;;33.20;14.05;;;;;;;5.03;98.36;100257.34;1721320;81;21101;-75
2022/09/06 03:42:32;;;;;;;34.05;14.03;;;;;;;5.02;99.14;100265.23;1719417;82;21012;-75
2022/09/06 03:45:06;;;;;;;28.87;12.25;;;;;;;5.06;99.50;100271.78;1716478;82;21038;-80
2022/09/06 03:47:34;;;;;;;30.88;13.32;;;;;;;5.13;99.87;100260.67;1726932;82;20901;-72
2022/09/06 03:50:05;;;;;;;37.70;14.03;;;;;;;5.13;99.87;100260.67;1684037;83;21050;-75
2022/09/06 03:52:37;;;;;;;31.75;13.88;;;;;;;5.16;100.00;100266.95;1681136;85;21166;-73
2022/09/06 03:55:05;;;;;;;31.93;14.45;;;;;;;5.23;100.00;100276.50;1693687;83;21561;-74
2022/09/06 03:57:37;;;;;;;32.05;12.43;;;;;;;5.38;100.00;100280.40;1679003;85;21522;-77
2022/09/06 04:00:11;;;;;;;32.45;13.78;;;;;;;5.57;100.00;100280.23;1685546;84;21102;-72
2022/09/06 04:02:44;;;;;;;48.80;13.72;;;;;;;5.65;100.00;100277.01;1714018;82;20909;-78
2022/09/06 04:05:20;;;;;;;27.17;13.13;;;;;;;5.76;99.83;100278.69;1664344;84;20891;-76
2022/09/06 04:07:52;;;;;;;31.95;13.43;;;;;;;5.76;99.83;100278.69;1707614;82;20973;-78
2022/09/06 04:10:20;;;;;;;;;;;;;;;5.88;99.72;100289.34;1710205;82;21608;-76
2022/09/06 04:12:52;;;;;;;23.70;12.53;;;;;;;5.97;99.52;100293.22;1738725;81;20191;-75
2022/09/06 04:15:24;;;;;;;;;;;;;;;6.06;98.99;100286.71;1716389;83;21567;-75
2022/09/06 04:17:57;;;;;;;20.20;11.00;;;;;;;6.15;98.63;100284.56;1713112;82;21576;-76
2022/09/06 04:20:23;;;;;;;23.73;11.90;;;;;;;6.21;98.41;100280.77;1682210;84;21006;-76
2022/09/06 04:22:52;;;;;;;26.60;11.70;;;;;;;6.25;97.97;100280.50;1678969;84;21490;-74
2022/09/06 04:25:26;;;;;;;29.18;12.70;;;;;;;6.32;97.98;100276.15;1703019;82;21009;-77
2022/09/06 04:27:57;;;;;;;22.67;11.60;;;;;;;6.37;97.76;100287.04;1716293;82;21012;-74
2022/09/06 04:30:26;;;;;;;25.48;11.63;;;;;;;6.42;97.57;100282.95;1705821;80;21598;-77
2022/09/06 04:32:55;;;;;;;25.82;11.85;;;;;;;6.47;97.23;100285.69;1709772;82;21029;-76
2022/09/06 04:35:25;;;;;;;41.68;13.90;;;;;;;6.54;97.06;100290.34;1714810;82;21195;-76
2022/09/06 04:37:57;;;;;;;26.10;11.95;;;;;;;6.58;96.70;100288.71;1663981;83;21070;-80
2022/09/06 04:40:25;;;;;;;31.60;10.45;;;;;;;6.69;96.32;100290.09;1708221;82;21082;-75
2022/09/06 04:42:57;;;;;;;20.48;9.60;;;;;;;6.78;95.94;100287.09;1684123;83;21346;-72
2022/09/06 04:45:25;;;;;;;24.27;10.80;;;;;;;6.86;95.48;100290.09;1673536;85;21624;-72
2022/09/06 04:47:58;;;;;;;23.45;10.25;;;;;;;6.97;94.84;100289.52;1713053;82;21085;-75
2022/09/06 04:50:29;;;;;;;20.65;8.63;;;;;;;7.09;93.96;100287.33;1691046;83;21127;-76
2022/09/06 04:53:03;;;;;;;24.92;9.75;;;;;;;7.19;93.32;100292.78;1712100;82;20993;-78
2022/09/06 04:55:32;;;;;;;24.32;9.50;;;;;;;7.29;91.94;100291.95;1687832;84;21202;-80
2022/09/06 04:58:04;;;;;;;18.27;8.80;;;;;;;7.37;91.39;100295.48;1676899;84;21053;-83
2022/09/06 05:00:34;;;;;;;20.23;9.05;;;;;;;7.50;91.09;100294.91;1693192;84;21029;-87
2022/09/06 05:03:04;;;;;;;20.25;9.50;;;;;;;7.63;90.35;100288.02;1669696;84;20950;-90
2022/09/06 05:05:35;;;;;;;24.95;9.08;;;;;;;7.75;89.52;100287.70;1693909;84;20901;-78
2022/09/06 05:08:11;;;;;;;24.92;10.00;;;;;;;7.81;88.91;100289.32;1661414;84;21006;-82
2022/09/06 05:10:38;;;;;;;16.75;8.60;;;;;;;7.85;88.07;100294.50;1637810;85;21137;-82
2022/09/06 05:13:12;;;;;;;24.95;9.18;;;;;;;7.91;87.73;100297.48;1655321;85;21074;-81
2022/09/06 05:15:43;;;;;;;22.95;8.00;;;;;;;7.97;87.41;100290.08;1713308;82;20972;-81
2022/09/06 05:18:12;;;;;;;20.45;8.25;;;;;;;8.04;86.95;100291.96;1712829;82;20954;-78
2022/09/06 05:20:42;;;;;;;14.43;7.42;;;;;;;8.11;86.37;100292.45;1756929;79;20905;-80
2022/09/06 05:23:12;;;;;;;19.75;8.20;;;;;;;8.19;85.99;100291.86;1750712;80;20894;-77
2022/09/06 05:25:43;;;;;;;17.32;7.12;;;;;;;8.28;85.28;100292.91;1721165;82;21020;-81
2022/09/06 05:28:13;;;;;;;14.83;7.28;;;;;;;8.39;84.56;100298.62;1719428;82;21780;-81
2022/09/06 05:30:43;;;;;;;28.73;8.00;;;;;;;8.48;84.06;100292.81;1714040;82;21074;-80
2022/09/06 05:33:18;;;;;;;23.07;6.90;;;;;;;8.58;82.98;100295.48;1716717;82;21158;-85
2022/09/06 05:35:50;;;;;;;17.48;7.95;;;;;;;8.68;82.32;100295.12;1727562;81;20890;-85
2022/09/06 05:38:20;;;;;;;;;;;;;;;8.78;82.10;100290.94;1716292;82;21092;-87
2022/09/06 05:40:49;;;;;;;15.88;7.03;;;;;;;8.88;81.36;100288.94;1714597;83;20123;-74
2022/09/06 05:43:19;;;;;;;16.37;6.83;;;;;;;8.98;81.19;100290.77;1712482;83;20942;-76
2022/09/06 05:45:53;;;;;;;12.03;6.42;;;;;;;9.10;80.78;100285.73;1722185;82;21569;-77
2022/09/06 05:48:21;;;;;;;12.20;5.87;;;;;;;9.25;79.78;100286.12;1720359;82;21077;-79
2022/09/06 05:51:04;;;;;;;11.85;5.55;;;;;;;9.39;78.56;100293.92;1715458;82;21580;-84
2022/09/06 05:53:41;;;;;;;9.05;4.25;;;;;;;9.47;77.25;100283.70;1712452;82;21631;-86
2022/09/06 05:56:18;;;;;;;15.90;4.92;;;;;;;9.59;77.15;100284.13;1655990;85;20986;-83
2022/09/06 05:58:50;;;;;;;12.40;4.65;;;;;;;9.75;76.34;100283.95;1715478;82;21500;-75
2022/09/06 06:01:21;;;;;;;8.07;3.83;;;;;;;9.90;75.53;100294.16;1710551;82;21001;-71
2022/09/06 06:03:59;;;;;;;8.18;3.55;;;;;;;10.05;73.73;100295.08;1707783;82;21063;-70
2022/09/06 06:06:30;;;;;;;10.93;4.30;;;;;;;10.16;73.48;100296.58;1705534;82;21044;-72
2022/09/06 06:08:59;;;;;;;12.68;3.52;;;;;;;10.29;73.06;100299.19;1695476;83;21599;-70
2022/09/06 06:11:30;;;;;;;12.28;4.10;;;;;;;10.36;70.71;100301.83;1710203;82;21550;-69
2022/09/06 06:13:59;;;;;;;8.78;4.35;;;;;;;10.43;71.42;100303.61;1723912;82;21447;-73
2022/09/06 06:16:26;;;;;;;12.75;4.30;;;;;;;10.53;70.68;100307.59;1709245;82;21048;-72
2022/09/06 06:18:53;;;;;;;13.45;4.70;;;;;;;10.64;69.51;100300.58;1686265;83;21066;-75
2022/09/06 06:21:25;;;;;;;12.23;3.60;;;;;;;10.70;68.30;100298.83;1703644;82;21082;-74
2022/09/06 06:24:00;;;;;;;4.33;2.55;;;;;;;10.77;68.25;100307.51;1694582;83;21332;-70
2022/09/06 06:26:33;;;;;;;6.67;3.50;;;;;;;10.90;67.32;100304.56;1709054;83;21157;-74
2022/09/06 06:29:06;;;;;;;7.10;2.52;;;;;;;11.00;65.87;100307.11;1719891;82;21016;-71
2022/09/06 06:31:38;;;;;;;7.00;3.40;;;;;;;11.10;65.61;100304.20;1709816;82;21497;-68
2022/09/06 06:34:09;;;;;;;10.03;3.62;;;;;;;11.25;65.39;100303.12;1699224;82;21098;-69
2022/09/06 06:36:43;;;;;;;7.60;3.67;;;;;;;11.40;64.43;100309.73;1704378;83;40010;-74
2022/09/06 06:39:11;;;;;;;8.33;2.85;;;;;;;11.52;63.74;100305.93;1708649;83;21072;-72
2022/09/06 06:41:42;;;;;;;5.92;2.98;;;;;;;11.66;63.36;100296.29;1707123;83;21012;-77
2022/09/06 06:44:15;;;;;;;12.43;3.17;;;;;;;11.78;62.31;100298.57;1697854;82;20986;-74
2022/09/06 06:46:43;;;;;;;5.75;2.95;;;;;;;11.89;62.41;100304.13;1689030;82;21006;-77
2022/09/06 06:49:16;;;;;;;6.15;2.85;;;;;;;12.03;62.11;100309.62;1705244;83;21110;-73
2022/09/06 06:51:45;;;;;;;7.90;3.70;;;;;;;12.18;62.08;100306.53;1704082;83;20960;-85
2022/09/06 06:54:14;;;;;;;13.62;3.85;;;;;;;12.33;60.72;100308.95;1713108;83;20903;-82
2022/09/06 06:56:45;;;;;;;8.48;3.55;;;;;;;12.48;59.76;100311.94;1660566;85;20878;-79
2022/09/06 06:59:12;;;;;;;6.35;3.10;;;;;;;12.60;58.36;100307.27;1713150;82;21560;-76
2022/09/06 07:01:41;;;;;;;5.60;2.92;;;;;;;12.65;58.91;100315.41;1714601;82;21125;-78
2022/09/06 07:04:09;;;;;;;6.75;2.90;;;;;;;12.74;58.78;100312.95;1682756;83;20988;-76
2022/09/06 07:06:58;;;;;;;8.25;3.52;;;;;;;12.86;58.36;100314.59;1657481;85;20924;-76
2022/09/06 07:09:24;;;;;;;7.10;2.55;;;;;;;12.90;57.48;100312.03;1651572;85;21032;-79
2022/09/06 07:11:55;;;;;;;5.28;2.40;;;;;;;12.92;56.96;100313.09;1693453;82;21031;-80
2022/09/06 07:14:28;;;;;;;6.35;2.42;;;;;;;12.99;56.17;100311.53;1654398;85;21163;-83
2022/09/06 07:16:58;;;;;;;6.10;3.22;;;;;;;13.05;55.24;100310.84;1656612;85;21602;-73
2022/09/06 07:19:28;;;;;;;3.67;2.00;;;;;;;13.07;55.80;100317.67;1694456;84;20986;-82
2022/09/06 07:21:56;;;;;;;2.90;1.80;;;;;;;13.10;53.84;100307.96;1693326;84;21574;-76
2022/09/06 07:24:27;;;;;;;7.20;1.87;;;;;;;13.18;54.22;100314.95;1690217;83;21105;-77
2022/09/06 07:26:57;;;;;;;2.98;1.30;;;;;;;13.34;53.69;100315.91;1679233;83;21020;-75
2022/09/06 07:29:28;;;;;;;3.27;1.75;;;;;;;13.49;52.25;100310.80;1681650;83;20951;-75
2022/09/06 07:32:01;;;;;;;7.67;1.90;;;;;;;13.70;51.95;100300.60;1706845;82;20950;-76
2022/09/06 07:34:36;;;;;;;6.67;3.15;;;;;;;13.89;51.40;100308.85;1709369;83;20950;-84
2022/09/06 07:37:01;;;;;;;6.55;3.27;;;;;;;14.18;51.48;100303.34;1702070;83;20907;-80
2022/09/06 07:39:35;;;;;;;5.03;2.15;;;;;;;14.56;51.32;100301.37;1703650;83;21134;-81
2022/09/06 07:42:08;;;;;;;3.58;1.90;;;;;;;14.96;49.99;100302.03;1698467;83;20930;-82
2022/09/06 07:44:38;;;;;;;5.78;3.27;;;;;;;15.32;49.00;100298.87;1695008;83;21191;-86
2022/09/06 07:47:10;;;;;;;6.37;2.70;;;;;;;15.69;48.28;100299.48;1671124;84;20963;-84
2022/09/06 07:49:41;;;;;;;3.67;1.90;;;;;;;15.82;46.49;100304.00;1656632;85;21202;-78
2022/09/06 07:52:14;;;;;;;7.83;2.20;;;;;;;15.74;45.72;100292.96;1675937;84;21165;-77
2022/09/06 07:54:42;;;;;;;;;;;;;;;15.60;46.54;100298.70;1716112;82;20918;-80
2022/09/06 07:57:10;;;;;;;5.35;2.27;;;;;;;15.44;46.56;100299.00;1716707;82;20140;-77
2022/09/06 07:59:41;;;;;;;8.73;3.27;;;;;;;15.23;46.97;100303.03;1715316;81;20909;-83
2022/09/06 08:02:08;;;;;;;14.65;5.25;;;;;;;14.98;46.15;100296.99;1714325;82;21091;-79
2022/09/06 08:04:34;;;;;;;17.85;2.70;;;;;;;14.74;47.38;100301.63;1713332;83;21158;-86
2022/09/06 08:07:02;;;;;;;2.90;1.77;;;;;;;14.64;47.71;100304.15;1714376;82;20937;-79
2022/09/06 08:09:31;;;;;;;1.47;0.90;;;;;;;14.51;48.36;100303.73;1714260;82;21111;-84
2022/09/06 08:12:06;;;;;;;6.78;1.67;;;;;;;14.43;47.04;100300.42;1718649;82;21519;-76
2022/09/06 08:14:28;;;;;;;16.10;2.37;;;;;;;14.39;47.74;100306.31;1719699;81;21100;-81
2022/09/06 08:16:56;;;;;;;1.42;1.10;;;;;;;14.38;47.62;100299.97;1718149;81;21136;-81
2022/09/06 08:19:23;;;;;;;1.75;1.20;;;;;;;14.36;46.69;100305.00;1716843;81;21438;-80
2022/09/06 08:21:57;;;;;;;3.35;0.98;;;;;;;14.36;45.97;100307.77;1719429;81;21510;-76
2022/09/06 08:24:27;;;;;;;2.15;1.00;;;;;;;14.30;45.57;100297.19;1718011;81;20972;-76
2022/09/06 08:26:54;;;;;;;9.68;1.20;;;;;;;14.18;46.33;100295.05;1718511;82;20910;-73
2022/09/06 08:29:26;;;;;;;6.83;1.25;;;;;;;14.20;47.85;100303.27;1720701;82;21040;-73
2022/09/06 08:31:52;;;;;;;3.77;1.20;;;;;;;14.30;47.10;100301.34;1719821;82;21021;-74
2022/09/06 08:34:19;;;;;;;2.60;1.12;;;;;;;14.29;45.36;100296.38;1718460;82;20989;-74
2022/09/06 08:36:45;;;;;;;1.25;0.90;;;;;;;14.18;45.20;100295.88;1712164;82;21567;-74
2022/09/06 08:39:15;;;;;;;2.17;1.07;;;;;;;14.08;45.44;100292.59;1713418;82;21003;-73
2022/09/06 08:42:04;;;;;;;20.43;1.75;;;;;;;14.01;46.05;100289.48;1718856;82;21139;-74
2022/09/06 08:44:48;;;;;;;9.18;1.00;;;;;;;13.99;46.32;100288.99;1720967;81;20973;-78
2022/09/06 08:47:17;;;;;;;2.35;0.80;;;;;;;14.01;45.07;100277.87;1706404;82;20993;-77
2022/09/06 08:49:51;;;;;;;4.12;0.98;;;;;;;14.00;43.38;100272.11;1717448;82;21618;-77
2022/09/06 08:52:42;;;;;;;1.32;0.90;;;;;;;13.93;45.83;100276.47;1720189;81;21029;-73
2022/09/06 08:55:32;;;;;;;6.60;1.30;;;;;;;14.11;46.07;100274.81;1691320;83;21888;-78
2022/09/06 08:58:46;;;;;;;22.98;3.00;;;;;;;14.53;45.63;100266.92;1653900;85;21497;-88
2022/09/06 09:01:18;;;;;;;2.15;0.95;;;;;;;15.35;44.64;100265.83;1642424;86;21057;-90
2022/09/06 09:03:49;;;;;;;3.10;1.50;;;;;;;15.88;41.00;100266.44;1648202;86;21625;-80
2022/09/06 09:06:20;;;;;;;2.33;1.05;;;;;;;16.03;41.70;100265.87;1689558;83;20976;-75
2022/09/06 09:09:09;;;;;;;2.62;1.15;;;;;;;16.09;40.59;100263.14;1691157;83;21812;-77
2022/09/06 09:11:36;;;;;;;6.15;1.20;;;;;;;15.99;41.01;100259.38;1691574;82;21544;-77
2022/09/06 09:14:12;;;;;;;3.20;1.00;;;;;;;15.77;40.31;100274.30;1687775;83;21651;-74
2022/09/06 09:16:47;;;;;;;11.43;3.55;;;;;;;15.50;41.05;100265.86;1683926;84;21100;-74
2022/09/06 09:19:15;;;;;;;6.12;3.52;;;;;;;15.27;41.64;100272.19;1635097;85;21001;-76
2022/09/06 09:21:44;;;;;;;3.00;1.87;;;;;;;15.08;42.09;100268.41;1679487;84;21736;-81
2022/09/06 09:24:18;;;;;;;4.10;1.70;;;;;;;14.95;42.24;100269.43;1637334;85;20986;-77
2022/09/06 09:26:59;;;;;;;7.80;1.30;;;;;;;15.19;42.41;100263.34;1658930;85;21037;-77
2022/09/06 09:29:49;;;;;;;3.30;1.70;;;;;;;15.87;42.01;100259.27;1645704;86;21495;-88
2022/09/06 09:32:36;;;;;;;4.85;2.50;;;;;;;16.79;41.57;100262.84;1625610;87;21444;-77
2022/09/06 09:35:27;;;;;;;2.27;1.25;;;;;;;17.45;39.19;100262.80;1679542;83;21102;-78
2022/09/06 09:38:08;;;;;;;4.17;1.70;;;;;;;17.63;37.14;100255.89;1687728;83;21021;-77
2022/09/06 09:40:54;;;;;;;2.80;1.62;;;;;;;17.60;36.60;100254.39;1656493;85;21073;-74
2022/09/06 09:43:31;;;;;;;4.97;1.92;;;;;;;17.47;36.18;100256.33;1638267;85;21110;-82
2022/09/06 09:46:23;;;;;;;7.03;1.35;;;;;;;17.34;37.19;100261.63;1680743;84;21157;-81
2022/09/06 09:49:08;;;;;;;5.37;1.50;;;;;;;17.27;36.45;100254.47;1687914;83;21106;-81
2022/09/06 09:51:45;;;;;;;5.25;2.65;;;;;;;17.14;37.50;100257.20;1701868;82;21504;-82
2022/09/06 09:54:16;;;;;;;5.25;1.15;;;;;;;17.22;37.84;100263.82;1716169;82;21032;-74
2022/09/06 09:56:54;;;;;;;1.95;1.17;;;;;;;17.21;35.86;100251.10;1710862;81;21111;-75
2022/09/06 09:59:29;;;;;;;2.80;0.95;;;;;;;16.99;36.07;100249.53;1714041;81;21076;-75
2022/09/06 10:02:01;;;;;;;44.98;4.28;;;;;;;16.58;36.77;100255.12;1723509;81;21555;-76
2022/09/06 10:04:34;;;;;;;13.75;1.65;;;;;;;16.34;37.17;100246.90;1713709;82;21466;-76
2022/09/06 10:07:18;;;;;;;5.60;2.08;;;;;;;16.09;38.54;100247.91;1730399;80;21586;-80
2022/09/06 10:10:03;;;;;;;3.27;1.37;;;;;;;15.97;38.93;100258.33;1716105;82;21110;-81
2022/09/06 10:12:34;;;;;;;1.98;1.12;;;;;;;15.82;39.06;100253.36;1714437;81;21045;-76
2022/09/06 10:15:02;;;;;;;2.70;1.10;;;;;;;15.72;38.92;100244.85;1684644;83;21155;-78
2022/09/06 10:17:50;;;;;;;1.37;1.10;;;;;;;15.69;38.69;100243.32;1662341;83;21046;-79
2022/09/06 10:20:18;;;;;;;1.87;1.17;;;;;;;15.72;39.60;100246.23;1711842;82;21482;-78
2022/09/06 10:23:00;;;;;;;1.20;0.95;;;;;;;15.97;39.69;100236.74;1716364;82;21017;-77
2022/09/06 10:25:40;;;;;;;2.00;1.20;;;;;;;16.64;38.79;100242.12;1681004;83;20848;-78
2022/09/06 10:28:31;;;;;;;2.45;1.22;;;;;;;17.38;38.07;100237.58;1714019;82;21537;-76
2022/09/06 10:31:35;;;;;;;23.15;2.85;;;;;;;18.00;35.15;100216.44;1698892;81;20927;-76
2022/09/06 10:34:25;;;;;;;2.75;1.60;;;;;;;18.09;34.90;100228.81;1707238;81;21027;-77
2022/09/06 10:37:23;;;;;;;2.83;1.40;;;;;;;17.97;33.92;100220.48;1718085;82;20985;-76
2022/09/06 10:40:08;;;;;;;2.42;1.47;;;;;;;17.90;34.88;100222.49;1713992;82;21497;-76
2022/09/06 10:42:54;;;;;;;5.20;2.20;;;;;;;17.98;33.81;100222.11;1721762;82;21889;-82
2022/09/06 10:45:55;;;;;;;3.60;2.00;;;;;;;17.81;34.90;100228.16;1718199;81;21665;-79
2022/09/06 10:48:29;;;;;;;4.17;1.77;;;;;;;17.48;34.89;100237.95;1717808;82;21021;-77
2022/09/06 10:51:27;;;;;;;3.00;1.75;;;;;;;16.92;35.59;100235.98;1718389;82;21079;-75
2022/09/06 10:54:12;;;;;;;3.60;1.98;;;;;;;16.63;37.21;100234.13;1700000;82;21068;-75
2022/09/06 10:57:04;;;;;;;6.08;2.35;;;;;;;16.34;37.98;100237.20;1718413;82;21235;-77
2022/09/06 10:59:52;;;;;;;5.42;2.37;;;;;;;16.25;38.06;100239.22;1710453;82;21737;-81
2022/09/06 11:02:58;;;;;;;2.85;1.98;;;;;;;16.23;38.33;100237.36;1711356;82;21619;-81
2022/09/06 11:05:36;;;;;;;4.33;1.77;;;;;;;16.20;38.69;100235.27;1709855;82;21612;-80
2022/09/06 11:08:24;;;;;;;5.92;2.10;;;;;;;16.27;37.44;100236.11;1722676;81;21049;-81
2022/09/06 11:10:54;;;;;;;3.60;2.12;;;;;;;16.23;37.63;100239.32;1707121;83;21164;-81
2022/09/06 11:13:28;;;;;;;4.97;1.98;;;;;;;16.09;38.89;100232.68;1686304;83;21026;-81
2022/09/06 11:16:20;;;;;;;4.60;2.10;;;;;;;16.07;38.83;100240.52;1705103;83;21548;-76
2022/09/06 11:18:54;;;;;;;5.25;2.65;;;;;;;16.02;39.03;100233.20;1677804;84;21032;-77
2022/09/06 11:22:08;;;;;;;8.23;2.02;;;;;;;16.04;38.12;100228.72;1668470;84;20982;-77
2022/09/06 11:24:57;;;;;;;;;;;;;;;15.93;39.37;100233.02;1712137;83;21113;-77
2022/09/06 11:27:39;;;;;;;3.60;2.20;;;;;;;15.91;38.75;100236.70;1712420;82;20137;-80
2022/09/06 11:30:14;;;;;;;6.93;2.27;;;;;;;15.84;39.26;100233.87;1712806;82;21109;-77
2022/09/06 11:32:50;;;;;;;7.97;3.10;;;;;;;15.81;39.37;100234.55;1709747;82;21093;-76
2022/09/06 11:35:28;;;;;;;4.75;2.60;;;;;;;15.79;39.07;100236.84;1701898;82;21104;-76
2022/09/06 11:38:14;;;;;;;6.37;2.40;;;;;;;15.75;39.28;100241.98;1714595;83;21949;-76
2022/09/06 11:40:46;;;;;;;55.35;4.90;;;;;;;15.70;39.33;100247.14;1718781;82;21012;-77
2022/09/06 11:43:38;;;;;;;8.05;3.33;;;;;;;15.59;39.93;100239.00;1708060;83;21034;-77
2022/09/06 11:46:07;;;;;;;14.07;4.90;;;;;;;15.52;39.96;100240.05;1706193;83;21100;-78
2022/09/06 11:48:50;;;;;;;35.52;5.92;;;;;;;15.42;40.41;100239.03;1710082;83;21042;-77
2022/09/06 11:51:31;;;;;;;10.35;5.45;;;;;;;15.33;41.42;100236.86;1668631;83;21250;-76
2022/09/06 11:54:03;;;;;;;8.85;5.00;;;;;;;15.25;41.34;100223.87;1692092;81;21030;-76
2022/09/06 11:56:52;;;;;;;13.95;6.25;;;;;;;15.09;41.32;100227.73;1711703;83;21005;-76
2022/09/06 11:59:32;;;;;;;33.83;7.10;;;;;;;15.04;41.63;100228.73;1716524;81;21088;-77